New Salem, PA

2:25 PM EST on January 26, 2015 (GMT -0500)
Morgantown Municipal-Hart | Change Station
CLOSE
Current Station
Airport
Location: Morgantown,
Elevation: 1247 ft
Nearby Weather Stations

Elev 1247 ft 39.64 °N, 79.92 °W | Updated 9 minutes ago

Snow
Snow
33 °F
Feels Like 29 °F
N
5
Wind Variable Wind from Variable

Today
High -- | Low -- °F
--% Chance of Precip.
Yesterday
High -- | Low -- °F
Precip. -- in
7:32 AM 5:31 PM
Waxing Crescent, 46% visible
Pressure 29.65 in
Visibility 0.8 miles
Clouds Overcast 300 ft
Windchill 29 °F
Dew Point 30 °F
Humidity 89%
Rainfall 0.22 in
Snow Depth Not available.
UV 1 out of 12
Pollen .10 out of 12
Air Quality Not available.
Flu Activity Not available.
SPECI KMGW 261916Z VRB04KT 3/4SM -SN BR OVC003 01/M01 A2965 RMK AO2 P0001 T00061011

More Conditions Fewer Conditions

Pressure 29.65 in
Visibility 0.8 miles
Clouds Overcast 300 ft
Windchill 29 °F
Dew Point 30 °F
Humidity 89%
Rainfall 0.22 in
Snow Depth Not available.
UV 1 out of 12
Pollen .10 out of 12
Air Quality Not available.
Flu Activity Not available.
SPECI KMGW 261916Z VRB04KT 3/4SM -SN BR OVC003 01/M01 A2965 RMK AO2 P0001 T00061011

More Conditions Fewer Conditions

10-Day Weather Forecast

Almanac

Astronomy

Jan. 26, 2015 Rise Set
Actual Time
Civil Twilight
Nautical Twilight
Astronomical Twilight
Moon
Length of Visible Light
Length of Day
Tomorrow will be .
, % of the Moon is Illuminated

Today's Extremes

State Highs State Lows

Community

WunderPhotos

Upload Photos

1,790,337 photos uploaded!

WunderBlogs® & News

Nearby

Air Quality

  Air Quality AQ Index Pollutant
Not available.

Snow Depth

Station Depth Elevation

Earthquake Activity

City Distance Mag. Time & Date
Minimum magnitude displayed is 2.5.

Coastal Water Temperatures

Place Temperature

Nearby Weather Stations